createdAt,value
2019-04-21T00:02:24.112Z,9.10
2019-04-21T00:12:02.500Z,9.00
2019-04-21T00:17:30.330Z,8.90
2019-04-21T00:20:17.609Z,8.80
2019-04-21T00:26:24.047Z,8.70
2019-04-21T00:32:41.966Z,8.60
2019-04-21T00:38:25.037Z,8.60
2019-04-21T00:41:00.344Z,8.50
2019-04-21T00:58:19.489Z,8.30
2019-04-21T01:00:46.023Z,8.20
2019-04-21T01:04:04.389Z,8.20
2019-04-21T01:06:36.891Z,8.20
2019-04-21T01:09:14.886Z,8.10
2019-04-21T01:11:59.622Z,8.10
2019-04-21T01:18:04.706Z,8.10
2019-04-21T01:20:17.615Z,8.00
2019-04-21T01:22:53.742Z,8.00
2019-04-21T01:26:06.818Z,7.90
2019-04-21T01:28:51.119Z,7.90
2019-04-21T01:32:05.159Z,7.80
2019-04-21T01:38:07.083Z,7.70
2019-04-21T01:44:18.366Z,7.60
2019-04-21T01:46:46.488Z,7.60
2019-04-21T01:49:17.009Z,7.50
2019-04-21T01:55:46.728Z,7.50
2019-04-21T02:02:08.053Z,7.50
2019-04-21T02:08:06.586Z,7.40
2019-04-21T02:10:49.081Z,7.40
2019-04-21T02:13:14.367Z,7.30
2019-04-21T02:15:52.919Z,7.30
2019-04-21T02:21:58.369Z,7.30
2019-04-21T02:24:42.686Z,7.20
2019-04-21T02:27:06.477Z,7.20
2019-04-21T02:29:43.817Z,7.20
2019-04-21T02:35:04.083Z,7.10
2019-04-21T02:37:38.488Z,7.10
2019-04-21T02:40:07.024Z,7.00
2019-04-21T02:42:43.297Z,7.00
2019-04-21T02:45:08.778Z,7.00
2019-04-21T02:47:48.569Z,6.90
2019-04-21T02:50:19.102Z,6.90
2019-04-21T02:55:25.607Z,6.80
2019-04-21T03:01:06.988Z,6.80
2019-04-21T03:06:18.722Z,6.70
2019-04-21T03:11:21.972Z,6.60
2019-04-21T03:14:11.180Z,6.60
2019-04-21T03:21:32.773Z,6.50
2019-04-21T03:26:48.457Z,6.40
2019-04-21T03:29:12.534Z,6.40
2019-04-21T03:32:14.442Z,6.40
2019-04-21T03:34:40.985Z,6.30
2019-04-21T03:37:17.275Z,6.30
2019-04-21T03:39:36.664Z,6.30
2019-04-21T03:42:19.841Z,6.30
2019-04-21T03:44:37.068Z,6.20
2019-04-21T03:47:14.646Z,6.20
2019-04-21T03:49:59.883Z,6.20
2019-04-21T03:52:22.204Z,6.20
2019-04-21T04:14:20.359Z,6.00
2019-04-21T04:16:49.495Z,6.00
2019-04-21T04:19:34.422Z,6.00
2019-04-21T04:22:09.226Z,5.90
2019-04-21T04:27:12.715Z,5.90
2019-04-21T04:29:35.234Z,5.90
2019-04-21T04:32:06.406Z,5.90
2019-04-21T04:35:10.341Z,5.80
2019-04-21T04:41:32.340Z,5.80
2019-04-21T04:44:06.096Z,5.70
2019-04-21T04:46:55.747Z,5.70
2019-04-21T04:49:25.222Z,5.70
2019-04-21T05:01:42.746Z,5.60
2019-04-21T05:04:18.333Z,5.70
2019-04-21T05:12:29.474Z,5.80
2019-04-21T05:22:42.840Z,5.90
2019-04-21T05:25:09.621Z,5.90
2019-04-21T05:27:43.791Z,6.00
2019-04-21T05:30:40.386Z,6.10
2019-04-21T05:33:39.977Z,6.10
2019-04-21T05:36:30.889Z,6.30
2019-04-21T05:39:21.026Z,6.30
2019-04-21T05:41:47.446Z,6.40
2019-04-21T05:44:43.047Z,6.50
2019-04-21T05:47:14.172Z,6.60
2019-04-21T05:49:48.621Z,6.70
2019-04-21T05:52:08.147Z,6.90
2019-04-21T05:55:09.385Z,7.00
2019-04-21T06:06:22.050Z,7.80
2019-04-21T06:09:00.937Z,8.00
2019-04-21T06:11:55.599Z,8.30
2019-04-21T06:15:14.318Z,8.60
2019-04-21T06:56:51.578Z,12.00
2019-04-21T06:59:13.512Z,12.30
2019-04-21T07:01:58.192Z,12.50
2019-04-21T07:04:25.498Z,12.60
2019-04-21T07:06:56.328Z,12.80
2019-04-21T07:09:42.914Z,12.90
2019-04-21T07:11:59.825Z,13.10
2019-04-21T07:17:05.091Z,13.40
2019-04-21T07:19:41.248Z,13.60
2019-04-21T07:22:16.149Z,13.70
2019-04-21T07:24:37.114Z,13.90
2019-04-21T07:27:17.052Z,14.00
2019-04-21T07:29:47.444Z,14.10
2019-04-21T07:32:19.147Z,14.30
2019-04-21T07:34:51.576Z,14.40
2019-04-21T07:37:20.345Z,14.60
2019-04-21T07:39:52.771Z,14.80
2019-04-21T07:42:18.692Z,15.00
2019-04-21T07:44:51.268Z,15.30
2019-04-21T07:47:27.078Z,15.40
2019-04-21T07:50:06.828Z,15.40
2019-04-21T07:52:52.095Z,15.50
2019-04-21T07:57:47.396Z,15.80
2019-04-21T08:02:51.154Z,16.10
2019-04-21T08:05:20.021Z,16.30
2019-04-21T08:07:54.741Z,16.50
2019-04-21T08:10:15.690Z,16.70
2019-04-21T08:12:48.024Z,16.90
2019-04-21T08:15:30.712Z,17.00
2019-04-21T08:17:53.591Z,17.10
2019-04-21T08:20:24.745Z,17.30
2019-04-21T08:22:59.601Z,17.40
2019-04-21T08:25:53.510Z,17.60
2019-04-21T08:28:01.448Z,17.70
2019-04-21T08:30:50.199Z,17.90
2019-04-21T08:33:19.144Z,18.00
2019-04-21T08:35:52.946Z,18.20
2019-04-21T08:38:08.520Z,18.20
2019-04-21T08:40:42.437Z,18.20
2019-04-21T08:43:09.336Z,18.30
2019-04-21T08:45:41.876Z,18.40
2019-04-21T08:48:22.405Z,18.50
2019-04-21T08:50:47.587Z,18.60
2019-04-21T08:53:13.974Z,18.60
2019-04-21T08:56:10.024Z,18.60
2019-04-21T08:59:11.121Z,18.60
2019-04-21T09:01:55.250Z,18.70
2019-04-21T09:04:24.542Z,18.90
2019-04-21T09:09:28.892Z,19.00
2019-04-21T09:11:58.993Z,19.00
2019-04-21T09:14:35.484Z,19.00
2019-04-21T09:16:56.403Z,19.00
2019-04-21T09:19:44.291Z,19.10
2019-04-21T09:22:05.722Z,19.10
2019-04-21T09:24:42.917Z,19.30
2019-04-21T09:27:08.542Z,19.40
2019-04-21T09:29:33.601Z,19.40
2019-04-21T09:31:57.249Z,19.50
2019-04-21T09:34:33.234Z,19.60
2019-04-21T09:37:12.730Z,19.70
2019-04-21T09:39:29.608Z,19.80
2019-04-21T09:42:02.389Z,19.80
2019-04-21T09:44:36.062Z,19.80
2019-04-21T09:47:03.402Z,19.90
2019-04-21T09:49:33.885Z,19.90
2019-04-21T09:52:08.958Z,19.90
2019-04-21T09:54:45.190Z,20.00
2019-04-21T09:57:14.568Z,20.00
2019-04-21T09:59:40.714Z,20.10
2019-04-21T10:02:16.138Z,20.20
2019-04-21T10:04:42.327Z,20.30
2019-04-21T10:07:24.700Z,20.30
2019-04-21T10:09:43.669Z,20.30
2019-04-21T10:12:14.207Z,20.40
2019-04-21T10:14:45.120Z,20.50
2019-04-21T10:17:37.506Z,20.60
2019-04-21T10:20:09.488Z,20.60
2019-04-21T10:22:39.429Z,20.70
2019-04-21T10:25:10.623Z,20.70
2019-04-21T10:27:41.330Z,20.80
2019-04-21T10:30:12.157Z,20.80
2019-04-21T10:32:42.690Z,20.80
2019-04-21T10:35:12.919Z,20.90
2019-04-21T10:37:53.709Z,21.00
2019-04-21T10:40:15.868Z,21.10
2019-04-21T10:42:45.988Z,21.20
2019-04-21T10:45:17.174Z,21.30
2019-04-21T10:47:47.211Z,21.40
2019-04-21T10:50:18.277Z,21.40
2019-04-21T10:53:09.124Z,21.40
2019-04-21T10:55:55.910Z,21.30
2019-04-21T10:58:36.300Z,21.20
2019-04-21T11:01:16.822Z,21.10
2019-04-21T11:04:21.077Z,21.20
2019-04-21T11:06:46.431Z,21.30
2019-04-21T11:09:16.210Z,21.30
2019-04-21T11:11:47.873Z,21.40
2019-04-21T11:14:17.916Z,21.30
2019-04-21T11:16:51.129Z,21.30
2019-04-21T11:19:22.150Z,21.30
2019-04-21T11:21:52.479Z,21.30
2019-04-21T11:24:23.015Z,21.40
2019-04-21T11:26:53.719Z,21.50
2019-04-21T11:29:23.436Z,21.50
2019-04-21T11:31:52.744Z,21.60
2019-04-21T11:34:23.090Z,21.50
2019-04-21T11:36:52.445Z,21.60
2019-04-21T11:39:37.590Z,21.70
2019-04-21T11:41:59.734Z,21.70
2019-04-21T11:44:30.945Z,21.80
2019-04-21T11:47:02.621Z,21.80
2019-04-21T11:49:32.623Z,21.70
2019-04-21T11:52:02.959Z,21.70
2019-04-21T11:54:32.943Z,21.70
2019-04-21T11:57:11.787Z,21.80
2019-04-21T11:59:33.627Z,21.80
2019-04-21T12:02:03.575Z,21.80
2019-04-21T12:04:33.698Z,21.80
2019-04-21T12:07:03.436Z,21.90
2019-04-21T12:09:35.441Z,21.90
2019-04-21T12:12:05.325Z,21.90
2019-04-21T12:14:36.303Z,21.90
2019-04-21T12:17:06.043Z,21.90
2019-04-21T12:19:36.622Z,21.90
2019-04-21T12:22:14.103Z,22.00
2019-04-21T12:24:38.375Z,22.00
2019-04-21T12:27:09.872Z,22.10
2019-04-21T12:29:41.835Z,22.10
2019-04-21T12:32:30.618Z,22.10
2019-04-21T12:35:01.694Z,22.20
2019-04-21T12:37:31.266Z,22.30
2019-04-21T12:40:03.152Z,22.30
2019-04-21T12:42:34.458Z,22.30
2019-04-21T12:45:05.608Z,22.40
2019-04-21T12:47:35.287Z,22.30
2019-04-21T12:50:06.679Z,22.30
2019-04-21T12:52:37.720Z,22.40
2019-04-21T12:55:07.641Z,22.40
2019-04-21T12:57:37.228Z,22.40
2019-04-21T13:00:11.167Z,22.40
2019-04-21T13:02:40.558Z,22.30
2019-04-21T13:05:11.650Z,22.30
2019-04-21T13:07:41.647Z,22.40
2019-04-21T13:10:12.723Z,22.40
2019-04-21T13:12:42.227Z,22.30
2019-04-21T13:15:13.525Z,22.30
2019-04-21T13:17:45.760Z,22.30
2019-04-21T13:20:17.048Z,22.30
2019-04-21T13:22:48.183Z,22.40
2019-04-21T13:25:18.123Z,22.40
2019-04-21T13:27:49.126Z,22.50
2019-04-21T13:30:20.220Z,22.50
2019-04-21T13:32:51.361Z,22.40
2019-04-21T13:35:21.336Z,22.40
2019-04-21T13:37:52.247Z,22.40
2019-04-21T13:40:53.027Z,22.50
2019-04-21T13:43:08.372Z,22.50
2019-04-21T13:45:57.536Z,22.50
2019-04-21T13:48:28.607Z,22.50
2019-04-21T13:50:59.572Z,22.50
2019-04-21T13:53:29.436Z,22.50
2019-04-21T13:56:02.615Z,22.40
2019-04-21T13:58:32.638Z,22.50
2019-04-21T14:01:03.550Z,22.40
2019-04-21T14:03:33.545Z,22.40
2019-04-21T14:06:02.872Z,22.60
2019-04-21T14:08:33.515Z,22.60
2019-04-21T14:11:03.304Z,22.70
2019-04-21T14:13:34.168Z,22.70
2019-04-21T14:16:04.166Z,22.70
2019-04-21T14:18:34.197Z,22.70
2019-04-21T14:21:05.048Z,22.70
2019-04-21T14:23:40.573Z,22.70
2019-04-21T14:26:08.611Z,22.60
2019-04-21T14:28:38.909Z,22.60
2019-04-21T14:31:10.469Z,22.70
2019-04-21T14:33:40.791Z,22.70
2019-04-21T14:36:10.679Z,22.70
2019-04-21T14:38:40.747Z,22.80
2019-04-21T14:41:10.407Z,22.80
2019-04-21T14:43:41.753Z,22.70
2019-04-21T14:46:21.467Z,22.70
2019-04-21T14:49:09.163Z,22.70
2019-04-21T14:52:16.852Z,22.80
2019-04-21T14:55:14.425Z,22.80
2019-04-21T14:57:45.197Z,22.80
2019-04-21T15:00:18.982Z,22.80
2019-04-21T15:02:49.736Z,22.80
2019-04-21T15:05:21.642Z,22.80
2019-04-21T15:07:51.279Z,22.80
2019-04-21T15:10:24.311Z,22.80
2019-04-21T15:12:53.726Z,22.70
2019-04-21T15:15:23.565Z,22.80
2019-04-21T15:17:53.563Z,22.80
2019-04-21T15:20:23.862Z,22.80
2019-04-21T15:22:54.919Z,22.80
2019-04-21T15:25:25.938Z,22.80
2019-04-21T15:27:56.900Z,22.80
2019-04-21T15:30:26.868Z,22.80
2019-04-21T15:32:56.536Z,22.70
2019-04-21T15:35:26.951Z,22.60
2019-04-21T15:37:57.914Z,22.60
2019-04-21T15:40:37.674Z,22.60
2019-04-21T15:43:00.144Z,22.60
2019-04-21T15:45:30.600Z,22.50
2019-04-21T15:48:02.124Z,22.50
2019-04-21T15:50:32.313Z,22.50
2019-04-21T15:53:05.624Z,22.50
2019-04-21T15:55:41.277Z,22.60
2019-04-21T15:58:18.614Z,22.60
2019-04-21T16:00:54.413Z,22.60
2019-04-21T16:03:24.801Z,22.60
2019-04-21T16:05:55.831Z,22.60
2019-04-21T16:08:26.994Z,22.60
2019-04-21T16:11:02.010Z,22.50
2019-04-21T16:13:29.927Z,22.40
2019-04-21T16:15:59.821Z,22.40
2019-04-21T16:18:30.063Z,22.40
2019-04-21T16:20:59.933Z,22.40
2019-04-21T16:23:30.718Z,22.40
2019-04-21T16:26:00.198Z,22.40
2019-04-21T16:28:31.075Z,22.20
2019-04-21T16:31:02.382Z,22.20
2019-04-21T16:33:33.429Z,22.10
2019-04-21T16:36:03.071Z,22.10
2019-04-21T16:38:33.421Z,22.00
2019-04-21T16:41:05.490Z,22.00
2019-04-21T16:43:35.368Z,22.00
2019-04-21T16:46:05.019Z,22.00
2019-04-21T16:48:35.660Z,22.00
2019-04-21T16:51:05.834Z,21.90
2019-04-21T16:53:43.658Z,21.80
2019-04-21T16:56:44.112Z,21.80
2019-04-21T16:59:24.452Z,21.70
2019-04-21T17:01:54.441Z,21.60
2019-04-21T17:04:24.491Z,21.50
2019-04-21T17:06:55.503Z,21.40
2019-04-21T17:09:26.402Z,21.40
2019-04-21T17:11:59.940Z,21.30
2019-04-21T17:14:47.747Z,21.20
2019-04-21T17:17:17.875Z,21.20
2019-04-21T17:19:37.044Z,21.10
2019-04-21T17:22:03.959Z,21.00
2019-04-21T17:24:34.746Z,21.00
2019-04-21T17:27:05.104Z,20.90
2019-04-21T17:29:34.652Z,20.80
2019-04-21T17:32:07.762Z,20.70
2019-04-21T17:34:37.387Z,20.60
2019-04-21T17:37:06.731Z,20.50
2019-04-21T17:39:36.641Z,20.50
2019-04-21T17:42:18.350Z,20.40
2019-04-21T17:44:39.300Z,20.30
2019-04-21T17:47:21.826Z,20.20
2019-04-21T17:49:41.134Z,20.10
2019-04-21T17:52:37.145Z,20.00
2019-04-21T17:55:17.510Z,19.90
2019-04-21T17:57:57.040Z,19.80
2019-04-21T18:00:51.826Z,19.80
2019-04-21T18:03:07.676Z,19.70
2019-04-21T18:05:40.991Z,19.60
2019-04-21T18:08:11.383Z,19.50
2019-04-21T18:10:37.494Z,19.40
2019-04-21T18:12:59.165Z,19.40
2019-04-21T18:15:44.342Z,19.20
2019-04-21T18:17:54.552Z,19.20
2019-04-21T18:20:30.455Z,19.10
2019-04-21T18:23:44.951Z,19.00
2019-04-21T18:26:10.238Z,18.90
2019-04-21T18:28:37.096Z,18.80
2019-04-21T18:31:14.344Z,18.70
2019-04-21T18:33:57.835Z,18.60
2019-04-21T18:36:52.194Z,18.50
2019-04-21T18:39:49.553Z,18.50
2019-04-21T18:42:31.183Z,18.30
2019-04-21T18:45:54.884Z,18.20
2019-04-21T18:48:19.402Z,18.10
2019-04-21T18:50:57.034Z,17.90
2019-04-21T18:53:44.168Z,17.80
2019-04-21T18:56:02.144Z,17.70
2019-04-21T18:58:27.463Z,17.60
2019-04-21T19:01:05.896Z,17.50
2019-04-21T19:03:36.743Z,17.40
2019-04-21T19:06:08.072Z,17.30
2019-04-21T19:08:53.671Z,17.20
2019-04-21T19:11:25.180Z,17.10
2019-04-21T19:16:47.516Z,16.90
2019-04-21T19:19:37.967Z,16.70
2019-04-21T19:21:40.454Z,16.70
2019-04-21T19:24:24.228Z,16.50
2019-04-21T19:26:57.450Z,16.40
2019-04-21T19:29:26.691Z,16.30
2019-04-21T19:31:49.592Z,16.20
2019-04-21T19:34:10.313Z,16.10
2019-04-21T19:36:34.982Z,16.00
2019-04-21T19:39:18.639Z,15.80
2019-04-21T19:41:52.156Z,15.70
2019-04-21T19:44:26.328Z,15.70
2019-04-21T19:46:58.285Z,15.50
2019-04-21T19:49:36.186Z,15.40
2019-04-21T19:51:54.059Z,15.40
2019-04-21T19:54:26.134Z,15.30
2019-04-21T19:56:47.080Z,15.20
2019-04-21T19:59:19.999Z,15.10
2019-04-21T20:01:51.291Z,15.10
2019-04-21T20:04:20.158Z,15.00
2019-04-21T20:07:01.860Z,14.90
2019-04-21T20:09:36.715Z,14.80
2019-04-21T20:12:06.398Z,14.70
2019-04-21T20:17:08.881Z,14.50
2019-04-21T20:19:27.127Z,14.40
2019-04-21T20:21:56.947Z,14.30
2019-04-21T20:24:30.296Z,14.30
2019-04-21T20:27:06.926Z,14.20
2019-04-21T20:29:54.170Z,14.10
2019-04-21T20:32:24.560Z,14.10
2019-04-21T20:34:55.624Z,14.00
2019-04-21T20:37:21.190Z,13.90
2019-04-21T20:39:46.131Z,13.90
2019-04-21T20:42:21.563Z,13.80
2019-04-21T20:45:20.051Z,13.70
2019-04-21T20:47:23.163Z,13.60
2019-04-21T20:49:56.823Z,13.60
2019-04-21T20:52:35.566Z,13.50
2019-04-21T20:54:59.535Z,13.40
2019-04-21T20:57:30.065Z,13.40
2019-04-21T21:00:07.075Z,13.30
2019-04-21T21:02:43.295Z,13.20
2019-04-21T21:05:00.354Z,13.10
2019-04-21T21:07:47.319Z,13.00
2019-04-21T21:10:10.911Z,13.00
2019-04-21T21:12:49.090Z,12.80
2019-04-21T21:15:10.058Z,12.80
2019-04-21T21:17:56.345Z,12.70
2019-04-21T21:20:21.228Z,12.70
2019-04-21T21:22:47.850Z,12.60
2019-04-21T21:25:29.227Z,12.60
2019-04-21T21:27:50.907Z,12.50
2019-04-21T21:30:22.954Z,12.40
2019-04-21T21:35:56.714Z,12.30
2019-04-21T21:38:31.164Z,12.20
2019-04-21T21:40:57.081Z,12.10
2019-04-21T21:43:22.774Z,12.10
2019-04-21T21:45:59.068Z,12.00
2019-04-21T21:48:43.448Z,12.00
2019-04-21T21:51:05.763Z,12.00
2019-04-21T21:53:34.280Z,11.90
2019-04-21T21:56:04.660Z,11.90
2019-04-21T21:58:40.336Z,11.90
2019-04-21T22:01:08.721Z,11.80
2019-04-21T22:03:44.530Z,11.80
2019-04-21T22:06:17.486Z,11.70
2019-04-21T22:08:43.154Z,11.70
2019-04-21T22:11:13.723Z,11.70
2019-04-21T22:13:53.157Z,11.70
2019-04-21T22:16:19.617Z,11.60
2019-04-21T22:22:32.103Z,11.50
2019-04-21T22:25:04.805Z,11.50
2019-04-21T22:27:29.161Z,11.40
2019-04-21T22:30:28.999Z,11.30
2019-04-21T22:33:00.632Z,11.30
2019-04-21T22:35:38.114Z,11.20
2019-04-21T22:38:47.605Z,11.20
2019-04-21T22:55:23.660Z,10.90
2019-04-21T23:02:26.352Z,10.80
2019-04-21T23:19:03.491Z,10.50
2019-04-21T23:32:15.041Z,10.20
2019-04-21T23:41:42.391Z,10.10
2019-04-21T23:44:15.159Z,10.00
2019-04-21T23:50:37.881Z,9.90
